sensor_id;sensor_type;location;lat;lon;timestamp;temperature;humidity
17639;DHT22;8938;53.546;9.954;2023-02-15T00:01:15;8.60;99.90
17639;DHT22;8938;53.546;9.954;2023-02-15T00:03:41;8.70;99.90
17639;DHT22;8938;53.546;9.954;2023-02-15T00:06:08;8.70;99.90
17639;DHT22;8938;53.546;9.954;2023-02-15T00:08:34;8.70;99.90
17639;DHT22;8938;53.546;9.954;2023-02-15T00:11:11;8.70;99.90
17639;DHT22;8938;53.546;9.954;2023-02-15T00:13:38;8.80;99.90
17639;DHT22;8938;53.546;9.954;2023-02-15T00:16:07;8.80;99.90
17639;DHT22;8938;53.546;9.954;2023-02-15T00:18:33;8.90;99.90
17639;DHT22;8938;53.546;9.954;2023-02-15T00:21:04;8.90;99.90
17639;DHT22;8938;53.546;9.954;2023-02-15T00:23:29;8.90;99.90
17639;DHT22;8938;53.546;9.954;2023-02-15T00:26:09;8.90;99.90
17639;DHT22;8938;53.546;9.954;2023-02-15T00:28:36;9.00;99.90
17639;DHT22;8938;53.546;9.954;2023-02-15T00:31:09;9.00;99.90
17639;DHT22;8938;53.546;9.954;2023-02-15T00:33:36;9.00;99.90
17639;DHT22;8938;53.546;9.954;2023-02-15T00:36:03;9.00;99.90
17639;DHT22;8938;53.546;9.954;2023-02-15T00:38:30;9.00;99.90
17639;DHT22;8938;53.546;9.954;2023-02-15T00:40:58;9.00;99.90
17639;DHT22;8938;53.546;9.954;2023-02-15T00:43:25;9.00;99.90
17639;DHT22;8938;53.546;9.954;2023-02-15T00:45:50;9.00;99.90
17639;DHT22;8938;53.546;9.954;2023-02-15T00:48:16;9.00;99.90
17639;DHT22;8938;53.546;9.954;2023-02-15T00:50:45;9.00;99.90
17639;DHT22;8938;53.546;9.954;2023-02-15T00:53:11;8.80;99.90
17639;DHT22;8938;53.546;9.954;2023-02-15T00:55:36;8.70;99.90
17639;DHT22;8938;53.546;9.954;2023-02-15T00:58:02;8.70;99.90
17639;DHT22;8938;53.546;9.954;2023-02-15T01:00:27;8.70;99.90
17639;DHT22;8938;53.546;9.954;2023-02-15T01:02:53;8.70;99.90
17639;DHT22;8938;53.546;9.954;2023-02-15T01:05:19;8.70;99.90
17639;DHT22;8938;53.546;9.954;2023-02-15T01:07:44;8.70;99.90
17639;DHT22;8938;53.546;9.954;2023-02-15T01:10:09;8.70;99.90
17639;DHT22;8938;53.546;9.954;2023-02-15T01:12:35;8.70;99.90
17639;DHT22;8938;53.546;9.954;2023-02-15T01:15:01;8.80;99.90
17639;DHT22;8938;53.546;9.954;2023-02-15T01:19:52;8.70;99.90
17639;DHT22;8938;53.546;9.954;2023-02-15T01:22:18;8.70;99.90
17639;DHT22;8938;53.546;9.954;2023-02-15T01:24:44;8.70;99.90
17639;DHT22;8938;53.546;9.954;2023-02-15T01:27:10;8.60;99.90
17639;DHT22;8938;53.546;9.954;2023-02-15T01:29:35;8.50;99.90
17639;DHT22;8938;53.546;9.954;2023-02-15T01:32:01;8.50;99.90
17639;DHT22;8938;53.546;9.954;2023-02-15T01:34:28;8.30;99.90
17639;DHT22;8938;53.546;9.954;2023-02-15T01:36:54;8.30;99.90
17639;DHT22;8938;53.546;9.954;2023-02-15T01:39:19;8.20;99.90
17639;DHT22;8938;53.546;9.954;2023-02-15T01:41:45;8.10;99.90
17639;DHT22;8938;53.546;9.954;2023-02-15T01:47:38;8.30;99.90
17639;DHT22;8938;53.546;9.954;2023-02-15T01:50:18;8.30;99.90
17639;DHT22;8938;53.546;9.954;2023-02-15T01:55:17;8.60;99.90
17639;DHT22;8938;53.546;9.954;2023-02-15T01:57:43;8.60;99.90
17639;DHT22;8938;53.546;9.954;2023-02-15T02:00:11;8.50;99.90
17639;DHT22;8938;53.546;9.954;2023-02-15T02:02:36;8.30;99.90
17639;DHT22;8938;53.546;9.954;2023-02-15T02:05:03;8.30;99.90
17639;DHT22;8938;53.546;9.954;2023-02-15T02:07:35;8.20;99.90
17639;DHT22;8938;53.546;9.954;2023-02-15T02:10:05;8.30;99.90
17639;DHT22;8938;53.546;9.954;2023-02-15T02:12:31;8.50;99.90
17639;DHT22;8938;53.546;9.954;2023-02-15T02:14:58;8.50;99.90
17639;DHT22;8938;53.546;9.954;2023-02-15T02:23:14;8.30;99.90
17639;DHT22;8938;53.546;9.954;2023-02-15T02:34:01;8.00;99.90
17639;DHT22;8938;53.546;9.954;2023-02-15T02:36:51;7.90;99.90
17639;DHT22;8938;53.546;9.954;2023-02-15T02:44:42;7.90;99.90
17639;DHT22;8938;53.546;9.954;2023-02-15T02:49:43;8.00;99.90
17639;DHT22;8938;53.546;9.954;2023-02-15T02:55:34;8.00;99.90
17639;DHT22;8938;53.546;9.954;2023-02-15T02:58:24;7.90;99.90
17639;DHT22;8938;53.546;9.954;2023-02-15T03:01:01;7.90;99.90
17639;DHT22;8938;53.546;9.954;2023-02-15T03:03:58;7.80;99.90
17639;DHT22;8938;53.546;9.954;2023-02-15T03:06:30;7.80;99.90
17639;DHT22;8938;53.546;9.954;2023-02-15T03:09:06;7.80;99.90
17639;DHT22;8938;53.546;9.954;2023-02-15T03:11:40;7.80;99.90
17639;DHT22;8938;53.546;9.954;2023-02-15T03:14:06;7.70;99.90
17639;DHT22;8938;53.546;9.954;2023-02-15T03:16:32;7.70;99.90
17639;DHT22;8938;53.546;9.954;2023-02-15T03:19:08;7.70;99.90
17639;DHT22;8938;53.546;9.954;2023-02-15T03:24:13;8.00;99.90
17639;DHT22;8938;53.546;9.954;2023-02-15T03:26:40;8.10;99.90
17639;DHT22;8938;53.546;9.954;2023-02-15T03:29:09;8.20;99.90
17639;DHT22;8938;53.546;9.954;2023-02-15T03:31:38;8.20;99.90
17639;DHT22;8938;53.546;9.954;2023-02-15T03:34:08;8.20;99.90
17639;DHT22;8938;53.546;9.954;2023-02-15T03:36:42;8.30;99.90
17639;DHT22;8938;53.546;9.954;2023-02-15T03:41:56;8.40;99.90
17639;DHT22;8938;53.546;9.954;2023-02-15T03:44:30;8.50;99.90
17639;DHT22;8938;53.546;9.954;2023-02-15T03:52:00;8.70;99.90
17639;DHT22;8938;53.546;9.954;2023-02-15T03:54:29;8.70;99.90
17639;DHT22;8938;53.546;9.954;2023-02-15T03:57:20;8.80;99.90
17639;DHT22;8938;53.546;9.954;2023-02-15T04:00:14;8.80;99.90
17639;DHT22;8938;53.546;9.954;2023-02-15T04:05:38;8.80;99.90
17639;DHT22;8938;53.546;9.954;2023-02-15T04:08:04;8.70;99.90
17639;DHT22;8938;53.546;9.954;2023-02-15T04:10:30;8.70;99.90
17639;DHT22;8938;53.546;9.954;2023-02-15T04:13:14;8.70;99.90
17639;DHT22;8938;53.546;9.954;2023-02-15T04:15:39;8.80;99.90
17639;DHT22;8938;53.546;9.954;2023-02-15T04:18:23;8.80;99.90
17639;DHT22;8938;53.546;9.954;2023-02-15T04:21:08;8.70;99.90
17639;DHT22;8938;53.546;9.954;2023-02-15T04:23:52;8.70;99.90
17639;DHT22;8938;53.546;9.954;2023-02-15T04:26:36;8.70;99.90
17639;DHT22;8938;53.546;9.954;2023-02-15T04:29:01;8.70;99.90
17639;DHT22;8938;53.546;9.954;2023-02-15T04:31:27;8.80;99.90
17639;DHT22;8938;53.546;9.954;2023-02-15T04:33:52;8.70;99.90
17639;DHT22;8938;53.546;9.954;2023-02-15T04:36:18;8.70;99.90
17639;DHT22;8938;53.546;9.954;2023-02-15T04:38:43;8.70;99.90
17639;DHT22;8938;53.546;9.954;2023-02-15T04:41:09;8.70;99.90
17639;DHT22;8938;53.546;9.954;2023-02-15T04:43:36;8.70;99.90
17639;DHT22;8938;53.546;9.954;2023-02-15T04:46:02;8.70;99.90
17639;DHT22;8938;53.546;9.954;2023-02-15T04:48:27;8.50;99.90
17639;DHT22;8938;53.546;9.954;2023-02-15T04:50:53;8.30;99.90
17639;DHT22;8938;53.546;9.954;2023-02-15T04:53:18;8.10;99.90
17639;DHT22;8938;53.546;9.954;2023-02-15T04:55:44;7.90;99.90
17639;DHT22;8938;53.546;9.954;2023-02-15T04:58:09;7.70;99.90
17639;DHT22;8938;53.546;9.954;2023-02-15T05:00:35;7.70;99.90
17639;DHT22;8938;53.546;9.954;2023-02-15T05:03:00;7.80;99.90
17639;DHT22;8938;53.546;9.954;2023-02-15T05:05:26;7.80;99.90
17639;DHT22;8938;53.546;9.954;2023-02-15T05:07:52;8.00;99.90
17639;DHT22;8938;53.546;9.954;2023-02-15T05:10:17;8.10;99.90
17639;DHT22;8938;53.546;9.954;2023-02-15T05:12:43;8.20;99.90
17639;DHT22;8938;53.546;9.954;2023-02-15T05:15:09;8.20;99.90
17639;DHT22;8938;53.546;9.954;2023-02-15T05:17:34;8.10;99.90
17639;DHT22;8938;53.546;9.954;2023-02-15T05:20:00;7.70;99.90
17639;DHT22;8938;53.546;9.954;2023-02-15T05:22:25;7.70;99.90
17639;DHT22;8938;53.546;9.954;2023-02-15T05:24:51;7.50;99.90
17639;DHT22;8938;53.546;9.954;2023-02-15T05:27:35;7.40;99.90
17639;DHT22;8938;53.546;9.954;2023-02-15T05:30:19;7.40;99.90
17639;DHT22;8938;53.546;9.954;2023-02-15T05:32:44;7.50;99.90
17639;DHT22;8938;53.546;9.954;2023-02-15T05:35:14;7.60;99.90
17639;DHT22;8938;53.546;9.954;2023-02-15T05:37:40;7.60;99.90
17639;DHT22;8938;53.546;9.954;2023-02-15T05:40:06;7.70;99.90
17639;DHT22;8938;53.546;9.954;2023-02-15T05:42:32;7.80;99.90
17639;DHT22;8938;53.546;9.954;2023-02-15T05:44:58;7.90;99.90
17639;DHT22;8938;53.546;9.954;2023-02-15T05:47:23;8.00;99.90
17639;DHT22;8938;53.546;9.954;2023-02-15T05:49:49;8.10;99.90
17639;DHT22;8938;53.546;9.954;2023-02-15T05:52:14;8.20;99.90
17639;DHT22;8938;53.546;9.954;2023-02-15T05:54:40;8.20;99.90
17639;DHT22;8938;53.546;9.954;2023-02-15T05:57:05;8.20;99.90
17639;DHT22;8938;53.546;9.954;2023-02-15T05:59:31;8.20;99.90
17639;DHT22;8938;53.546;9.954;2023-02-15T06:01:56;8.10;99.90
17639;DHT22;8938;53.546;9.954;2023-02-15T06:04:22;8.20;99.90
17639;DHT22;8938;53.546;9.954;2023-02-15T06:06:47;8.30;99.90
17639;DHT22;8938;53.546;9.954;2023-02-15T06:09:13;8.20;99.90
17639;DHT22;8938;53.546;9.954;2023-02-15T06:11:39;8.10;99.90
17639;DHT22;8938;53.546;9.954;2023-02-15T06:14:04;8.20;99.90
17639;DHT22;8938;53.546;9.954;2023-02-15T06:16:30;8.20;99.90
17639;DHT22;8938;53.546;9.954;2023-02-15T06:18:55;8.20;99.90
17639;DHT22;8938;53.546;9.954;2023-02-15T06:21:21;8.20;99.90
17639;DHT22;8938;53.546;9.954;2023-02-15T06:23:47;8.20;99.90
17639;DHT22;8938;53.546;9.954;2023-02-15T06:26:12;8.20;99.90
17639;DHT22;8938;53.546;9.954;2023-02-15T06:28:38;8.20;99.90
17639;DHT22;8938;53.546;9.954;2023-02-15T06:31:05;8.30;99.90
17639;DHT22;8938;53.546;9.954;2023-02-15T06:33:30;8.30;99.90
17639;DHT22;8938;53.546;9.954;2023-02-15T06:35:58;8.30;99.90
17639;DHT22;8938;53.546;9.954;2023-02-15T06:38:23;8.30;99.90
17639;DHT22;8938;53.546;9.954;2023-02-15T06:40:49;8.30;99.90
17639;DHT22;8938;53.546;9.954;2023-02-15T06:43:14;7.80;99.90
17639;DHT22;8938;53.546;9.954;2023-02-15T06:45:41;8.30;99.90
17639;DHT22;8938;53.546;9.954;2023-02-15T06:48:06;8.30;99.90
17639;DHT22;8938;53.546;9.954;2023-02-15T06:50:33;8.30;99.90
17639;DHT22;8938;53.546;9.954;2023-02-15T06:52:59;8.30;99.90
17639;DHT22;8938;53.546;9.954;2023-02-15T06:55:25;8.30;99.90
17639;DHT22;8938;53.546;9.954;2023-02-15T06:57:50;8.10;99.90
17639;DHT22;8938;53.546;9.954;2023-02-15T07:00:17;7.80;99.90
17639;DHT22;8938;53.546;9.954;2023-02-15T07:02:44;7.80;99.90
17639;DHT22;8938;53.546;9.954;2023-02-15T07:05:09;7.80;99.90
17639;DHT22;8938;53.546;9.954;2023-02-15T07:07:35;7.80;99.90
17639;DHT22;8938;53.546;9.954;2023-02-15T07:10:01;7.90;99.90
17639;DHT22;8938;53.546;9.954;2023-02-15T07:12:26;7.90;99.90
17639;DHT22;8938;53.546;9.954;2023-02-15T07:15:08;7.90;99.90
17639;DHT22;8938;53.546;9.954;2023-02-15T07:17:35;7.90;99.90
17639;DHT22;8938;53.546;9.954;2023-02-15T07:20:03;9.60;99.90
17639;DHT22;8938;53.546;9.954;2023-02-15T07:24:55;8.00;99.90
17639;DHT22;8938;53.546;9.954;2023-02-15T07:27:21;7.80;99.90
17639;DHT22;8938;53.546;9.954;2023-02-15T07:29:47;7.70;99.90
17639;DHT22;8938;53.546;9.954;2023-02-15T07:32:12;7.50;99.90
17639;DHT22;8938;53.546;9.954;2023-02-15T07:34:40;7.30;99.90
17639;DHT22;8938;53.546;9.954;2023-02-15T07:37:05;7.20;99.90
17639;DHT22;8938;53.546;9.954;2023-02-15T07:39:31;7.20;99.90
17639;DHT22;8938;53.546;9.954;2023-02-15T07:41:56;7.10;99.90
17639;DHT22;8938;53.546;9.954;2023-02-15T07:44:22;7.10;99.90
17639;DHT22;8938;53.546;9.954;2023-02-15T07:46:48;8.00;99.90
17639;DHT22;8938;53.546;9.954;2023-02-15T07:49:13;7.00;99.90
17639;DHT22;8938;53.546;9.954;2023-02-15T07:51:39;7.00;99.90
17639;DHT22;8938;53.546;9.954;2023-02-15T07:54:06;7.00;99.90
17639;DHT22;8938;53.546;9.954;2023-02-15T07:56:32;6.90;99.90
17639;DHT22;8938;53.546;9.954;2023-02-15T07:58:58;6.90;99.90
17639;DHT22;8938;53.546;9.954;2023-02-15T08:03:52;6.80;99.90
17639;DHT22;8938;53.546;9.954;2023-02-15T08:06:18;6.90;99.90
17639;DHT22;8938;53.546;9.954;2023-02-15T08:08:43;7.30;99.90
17639;DHT22;8938;53.546;9.954;2023-02-15T08:16:25;8.20;99.90
17639;DHT22;8938;53.546;9.954;2023-02-15T08:18:52;8.40;99.90
17639;DHT22;8938;53.546;9.954;2023-02-15T08:21:19;8.20;99.90
17639;DHT22;8938;53.546;9.954;2023-02-15T08:23:45;7.80;99.90
17639;DHT22;8938;53.546;9.954;2023-02-15T08:26:10;7.60;99.90
17639;DHT22;8938;53.546;9.954;2023-02-15T08:28:36;7.50;99.90
17639;DHT22;8938;53.546;9.954;2023-02-15T08:31:20;7.70;99.90
17639;DHT22;8938;53.546;9.954;2023-02-15T08:33:48;7.70;99.90
17639;DHT22;8938;53.546;9.954;2023-02-15T08:36:17;7.60;99.90
17639;DHT22;8938;53.546;9.954;2023-02-15T08:38:44;7.60;99.90
17639;DHT22;8938;53.546;9.954;2023-02-15T08:43:44;7.20;99.90
17639;DHT22;8938;53.546;9.954;2023-02-15T08:46:11;7.10;99.90
17639;DHT22;8938;53.546;9.954;2023-02-15T08:48:37;7.00;99.90
17639;DHT22;8938;53.546;9.954;2023-02-15T08:51:11;6.70;99.90
17639;DHT22;8938;53.546;9.954;2023-02-15T08:53:39;6.70;99.90
17639;DHT22;8938;53.546;9.954;2023-02-15T08:56:05;6.50;99.90
17639;DHT22;8938;53.546;9.954;2023-02-15T08:58:31;6.50;99.90
17639;DHT22;8938;53.546;9.954;2023-02-15T09:00:59;6.50;99.90
17639;DHT22;8938;53.546;9.954;2023-02-15T09:03:27;6.50;99.90
17639;DHT22;8938;53.546;9.954;2023-02-15T09:05:57;6.50;99.90
17639;DHT22;8938;53.546;9.954;2023-02-15T09:08:23;6.70;99.90
17639;DHT22;8938;53.546;9.954;2023-02-15T09:10:48;6.80;99.90
17639;DHT22;8938;53.546;9.954;2023-02-15T09:13:14;6.90;99.90
17639;DHT22;8938;53.546;9.954;2023-02-15T09:15:40;6.90;99.90
17639;DHT22;8938;53.546;9.954;2023-02-15T09:18:06;6.90;99.90
17639;DHT22;8938;53.546;9.954;2023-02-15T09:20:35;7.00;99.90
17639;DHT22;8938;53.546;9.954;2023-02-15T09:23:01;7.10;99.90
17639;DHT22;8938;53.546;9.954;2023-02-15T09:25:27;7.10;99.90
17639;DHT22;8938;53.546;9.954;2023-02-15T09:27:52;7.00;99.90
17639;DHT22;8938;53.546;9.954;2023-02-15T09:30:18;7.00;99.90
17639;DHT22;8938;53.546;9.954;2023-02-15T09:32:44;6.90;99.90
17639;DHT22;8938;53.546;9.954;2023-02-15T09:35:11;6.70;99.90
17639;DHT22;8938;53.546;9.954;2023-02-15T09:37:38;6.70;99.90
17639;DHT22;8938;53.546;9.954;2023-02-15T09:40:04;6.70;99.90
17639;DHT22;8938;53.546;9.954;2023-02-15T09:45:54;6.60;99.90
17639;DHT22;8938;53.546;9.954;2023-02-15T09:48:21;6.70;99.90
17639;DHT22;8938;53.546;9.954;2023-02-15T09:50:54;6.90;99.90
17639;DHT22;8938;53.546;9.954;2023-02-15T09:53:56;7.10;99.90
17639;DHT22;8938;53.546;9.954;2023-02-15T09:56:33;7.40;99.90
17639;DHT22;8938;53.546;9.954;2023-02-15T09:59:15;7.50;99.90
17639;DHT22;8938;53.546;9.954;2023-02-15T10:04:59;7.50;99.90
17639;DHT22;8938;53.546;9.954;2023-02-15T10:16:29;7.40;99.90
17639;DHT22;8938;53.546;9.954;2023-02-15T10:19:04;7.30;99.90
17639;DHT22;8938;53.546;9.954;2023-02-15T10:21:55;7.30;99.90
17639;DHT22;8938;53.546;9.954;2023-02-15T10:24:36;7.40;99.90
17639;DHT22;8938;53.546;9.954;2023-02-15T10:27:12;7.40;99.90
17639;DHT22;8938;53.546;9.954;2023-02-15T10:52:54;8.20;99.90
17639;DHT22;8938;53.546;9.954;2023-02-15T10:56:00;8.10;99.90
17639;DHT22;8938;53.546;9.954;2023-02-15T10:58:47;8.10;99.90
17639;DHT22;8938;53.546;9.954;2023-02-15T11:04:44;8.00;99.90
17639;DHT22;8938;53.546;9.954;2023-02-15T11:07:24;7.90;99.90
17639;DHT22;8938;53.546;9.954;2023-02-15T11:12:40;7.80;99.90
17639;DHT22;8938;53.546;9.954;2023-02-15T11:17:53;7.70;99.90
17639;DHT22;8938;53.546;9.954;2023-02-15T11:20:38;7.80;99.90
17639;DHT22;8938;53.546;9.954;2023-02-15T11:23:15;7.80;99.90
17639;DHT22;8938;53.546;9.954;2023-02-15T11:25:44;7.80;99.90
17639;DHT22;8938;53.546;9.954;2023-02-15T11:28:18;7.80;99.90
17639;DHT22;8938;53.546;9.954;2023-02-15T11:30:50;8.00;99.90
17639;DHT22;8938;53.546;9.954;2023-02-15T11:33:26;8.20;99.90
17639;DHT22;8938;53.546;9.954;2023-02-15T11:36:00;8.30;99.90
17639;DHT22;8938;53.546;9.954;2023-02-15T11:38:32;8.30;99.90
17639;DHT22;8938;53.546;9.954;2023-02-15T11:41:05;8.30;99.90
17639;DHT22;8938;53.546;9.954;2023-02-15T11:44:25;8.40;99.90
17639;DHT22;8938;53.546;9.954;2023-02-15T11:46:24;8.50;99.90
17639;DHT22;8938;53.546;9.954;2023-02-15T11:48:49;8.50;99.90
17639;DHT22;8938;53.546;9.954;2023-02-15T11:51:19;8.60;99.90
17639;DHT22;8938;53.546;9.954;2023-02-15T11:53:46;8.50;99.90
17639;DHT22;8938;53.546;9.954;2023-02-15T11:56:25;8.60;99.90
17639;DHT22;8938;53.546;9.954;2023-02-15T12:01:40;8.70;99.90
17639;DHT22;8938;53.546;9.954;2023-02-15T12:04:22;8.70;99.90
17639;DHT22;8938;53.546;9.954;2023-02-15T12:07:11;8.70;99.90
17639;DHT22;8938;53.546;9.954;2023-02-15T12:12:37;8.80;99.90
17639;DHT22;8938;53.546;9.954;2023-02-15T12:15:08;10.10;99.90
17639;DHT22;8938;53.546;9.954;2023-02-15T12:17:54;8.80;99.90
17639;DHT22;8938;53.546;9.954;2023-02-15T12:20:24;8.90;99.90
17639;DHT22;8938;53.546;9.954;2023-02-15T12:22:59;9.00;99.90
17639;DHT22;8938;53.546;9.954;2023-02-15T12:25:29;8.90;99.90
17639;DHT22;8938;53.546;9.954;2023-02-15T12:27:58;8.90;99.90
17639;DHT22;8938;53.546;9.954;2023-02-15T12:30:31;8.90;99.90
17639;DHT22;8938;53.546;9.954;2023-02-15T12:33:21;9.00;99.90
17639;DHT22;8938;53.546;9.954;2023-02-15T12:36:12;9.20;99.90
17639;DHT22;8938;53.546;9.954;2023-02-15T12:38:40;9.30;99.90
17639;DHT22;8938;53.546;9.954;2023-02-15T12:41:24;9.20;99.90
17639;DHT22;8938;53.546;9.954;2023-02-15T12:44:17;9.30;99.90
17639;DHT22;8938;53.546;9.954;2023-02-15T12:46:57;9.40;99.90
17639;DHT22;8938;53.546;9.954;2023-02-15T12:49:24;9.50;99.90
17639;DHT22;8938;53.546;9.954;2023-02-15T12:51:52;9.50;99.90
17639;DHT22;8938;53.546;9.954;2023-02-15T12:54:36;9.60;99.90
17639;DHT22;8938;53.546;9.954;2023-02-15T12:57:26;9.70;99.90
17639;DHT22;8938;53.546;9.954;2023-02-15T13:02:35;9.80;99.90
17639;DHT22;8938;53.546;9.954;2023-02-15T13:05:38;9.90;99.90
17639;DHT22;8938;53.546;9.954;2023-02-15T13:10:53;10.20;99.90
17639;DHT22;8938;53.546;9.954;2023-02-15T13:13:24;10.20;99.90
17639;DHT22;8938;53.546;9.954;2023-02-15T13:15:51;10.20;99.90
17639;DHT22;8938;53.546;9.954;2023-02-15T13:18:38;10.20;99.90
17639;DHT22;8938;53.546;9.954;2023-02-15T13:23:36;10.20;99.90
17639;DHT22;8938;53.546;9.954;2023-02-15T13:26:04;10.30;99.90
17639;DHT22;8938;53.546;9.954;2023-02-15T13:28:44;10.40;99.90
17639;DHT22;8938;53.546;9.954;2023-02-15T13:31:17;10.50;99.90
17639;DHT22;8938;53.546;9.954;2023-02-15T13:33:48;10.50;99.90
17639;DHT22;8938;53.546;9.954;2023-02-15T13:36:27;10.50;99.90
17639;DHT22;8938;53.546;9.954;2023-02-15T13:39:24;10.50;99.90
17639;DHT22;8938;53.546;9.954;2023-02-15T13:42:00;10.50;99.90
17639;DHT22;8938;53.546;9.954;2023-02-15T13:47:23;10.40;99.90
17639;DHT22;8938;53.546;9.954;2023-02-15T13:49:59;10.60;99.90
17639;DHT22;8938;53.546;9.954;2023-02-15T13:52:27;10.90;99.90
17639;DHT22;8938;53.546;9.954;2023-02-15T13:55:33;11.00;99.90
17639;DHT22;8938;53.546;9.954;2023-02-15T13:58:16;11.00;99.90
17639;DHT22;8938;53.546;9.954;2023-02-15T14:03:51;10.90;99.90
17639;DHT22;8938;53.546;9.954;2023-02-15T14:06:44;10.90;99.90
17639;DHT22;8938;53.546;9.954;2023-02-15T14:09:36;11.10;99.90
17639;DHT22;8938;53.546;9.954;2023-02-15T14:15:11;11.30;99.90
17639;DHT22;8938;53.546;9.954;2023-02-15T14:17:49;11.40;99.90
17639;DHT22;8938;53.546;9.954;2023-02-15T14:23:31;11.50;99.90
17639;DHT22;8938;53.546;9.954;2023-02-15T14:28:52;11.40;99.90
17639;DHT22;8938;53.546;9.954;2023-02-15T14:31:29;11.40;99.90
17639;DHT22;8938;53.546;9.954;2023-02-15T14:33:58;11.30;99.90
17639;DHT22;8938;53.546;9.954;2023-02-15T14:36:25;11.30;99.90
17639;DHT22;8938;53.546;9.954;2023-02-15T14:39:12;11.30;99.90
17639;DHT22;8938;53.546;9.954;2023-02-15T14:42:27;11.40;99.90
17639;DHT22;8938;53.546;9.954;2023-02-15T14:45:20;11.30;99.90
17639;DHT22;8938;53.546;9.954;2023-02-15T14:48:07;11.30;99.90
17639;DHT22;8938;53.546;9.954;2023-02-15T14:50:40;11.20;99.90
17639;DHT22;8938;53.546;9.954;2023-02-15T14:58:55;11.40;99.90
17639;DHT22;8938;53.546;9.954;2023-02-15T15:01:32;11.30;99.90
17639;DHT22;8938;53.546;9.954;2023-02-15T15:04:07;11.40;99.90
17639;DHT22;8938;53.546;9.954;2023-02-15T15:06:36;11.30;99.90
17639;DHT22;8938;53.546;9.954;2023-02-15T15:09:29;11.30;99.90
17639;DHT22;8938;53.546;9.954;2023-02-15T15:14:48;11.40;99.90
17639;DHT22;8938;53.546;9.954;2023-02-15T15:20:02;11.60;99.90
17639;DHT22;8938;53.546;9.954;2023-02-15T15:22:30;11.60;99.90
17639;DHT22;8938;53.546;9.954;2023-02-15T15:25:08;11.60;99.90
17639;DHT22;8938;53.546;9.954;2023-02-15T15:27:49;11.60;99.90
17639;DHT22;8938;53.546;9.954;2023-02-15T15:43:55;11.30;99.90
17639;DHT22;8938;53.546;9.954;2023-02-15T15:49:17;11.20;99.90
17639;DHT22;8938;53.546;9.954;2023-02-15T15:51:44;11.20;99.90
17639;DHT22;8938;53.546;9.954;2023-02-15T15:54:20;11.30;99.90
17639;DHT22;8938;53.546;9.954;2023-02-15T15:56:49;11.30;99.90
17639;DHT22;8938;53.546;9.954;2023-02-15T15:59:20;11.30;99.90
17639;DHT22;8938;53.546;9.954;2023-02-15T16:01:47;11.30;99.90
17639;DHT22;8938;53.546;9.954;2023-02-15T16:04:22;11.30;99.90
17639;DHT22;8938;53.546;9.954;2023-02-15T16:06:48;11.30;99.90
17639;DHT22;8938;53.546;9.954;2023-02-15T16:09:21;11.30;99.90
17639;DHT22;8938;53.546;9.954;2023-02-15T16:11:57;11.10;99.90
17639;DHT22;8938;53.546;9.954;2023-02-15T16:14:35;11.00;99.90
17639;DHT22;8938;53.546;9.954;2023-02-15T16:17:04;10.80;99.90
17639;DHT22;8938;53.546;9.954;2023-02-15T16:19:36;10.70;99.90
17639;DHT22;8938;53.546;9.954;2023-02-15T16:22:09;10.60;99.90
17639;DHT22;8938;53.546;9.954;2023-02-15T16:24:58;10.60;99.90
17639;DHT22;8938;53.546;9.954;2023-02-15T16:27:39;10.60;99.90
17639;DHT22;8938;53.546;9.954;2023-02-15T16:30:26;10.60;99.90
17639;DHT22;8938;53.546;9.954;2023-02-15T16:33:14;10.50;99.90
17639;DHT22;8938;53.546;9.954;2023-02-15T16:38:28;10.30;99.90
17639;DHT22;8938;53.546;9.954;2023-02-15T16:41:00;10.20;99.90
17639;DHT22;8938;53.546;9.954;2023-02-15T16:43:29;10.30;99.90
17639;DHT22;8938;53.546;9.954;2023-02-15T16:46:05;10.30;99.90
17639;DHT22;8938;53.546;9.954;2023-02-15T16:48:32;10.20;99.90
17639;DHT22;8938;53.546;9.954;2023-02-15T16:50:59;10.20;99.90
17639;DHT22;8938;53.546;9.954;2023-02-15T16:53:27;10.20;99.90
17639;DHT22;8938;53.546;9.954;2023-02-15T16:55:59;10.20;99.90
17639;DHT22;8938;53.546;9.954;2023-02-15T16:58:29;10.10;99.90
17639;DHT22;8938;53.546;9.954;2023-02-15T17:00:57;10.10;99.90
17639;DHT22;8938;53.546;9.954;2023-02-15T17:03:24;10.00;99.90
17639;DHT22;8938;53.546;9.954;2023-02-15T17:05:53;10.00;99.90
17639;DHT22;8938;53.546;9.954;2023-02-15T17:08:28;10.00;99.90
17639;DHT22;8938;53.546;9.954;2023-02-15T17:13:35;10.00;99.90
17639;DHT22;8938;53.546;9.954;2023-02-15T17:18:31;9.90;99.90
17639;DHT22;8938;53.546;9.954;2023-02-15T17:21:00;10.00;99.90
17639;DHT22;8938;53.546;9.954;2023-02-15T17:26:10;10.20;99.90
17639;DHT22;8938;53.546;9.954;2023-02-15T17:28:37;10.20;99.90
17639;DHT22;8938;53.546;9.954;2023-02-15T17:31:06;10.20;99.90
17639;DHT22;8938;53.546;9.954;2023-02-15T17:33:36;10.20;99.90
17639;DHT22;8938;53.546;9.954;2023-02-15T17:38:30;9.90;99.90
17639;DHT22;8938;53.546;9.954;2023-02-15T17:40:56;9.80;99.90
17639;DHT22;8938;53.546;9.954;2023-02-15T17:43:24;9.80;99.90
17639;DHT22;8938;53.546;9.954;2023-02-15T17:45:50;9.80;99.90
17639;DHT22;8938;53.546;9.954;2023-02-15T17:48:21;9.90;99.90
17639;DHT22;8938;53.546;9.954;2023-02-15T17:50:48;9.90;99.90
17639;DHT22;8938;53.546;9.954;2023-02-15T17:53:16;10.00;99.90
17639;DHT22;8938;53.546;9.954;2023-02-15T17:55:43;10.00;99.90
17639;DHT22;8938;53.546;9.954;2023-02-15T17:58:14;10.00;99.90
17639;DHT22;8938;53.546;9.954;2023-02-15T18:00:44;10.00;99.90
17639;DHT22;8938;53.546;9.954;2023-02-15T18:03:40;10.10;99.90
17639;DHT22;8938;53.546;9.954;2023-02-15T18:06:25;10.10;99.90
17639;DHT22;8938;53.546;9.954;2023-02-15T18:09:11;10.10;99.90
17639;DHT22;8938;53.546;9.954;2023-02-15T18:11:56;9.90;99.90
17639;DHT22;8938;53.546;9.954;2023-02-15T18:14:21;9.70;99.90
17639;DHT22;8938;53.546;9.954;2023-02-15T18:16:47;9.40;99.90
17639;DHT22;8938;53.546;9.954;2023-02-15T18:19:24;9.20;99.90
17639;DHT22;8938;53.546;9.954;2023-02-15T18:21:50;9.10;99.90
17639;DHT22;8938;53.546;9.954;2023-02-15T18:24:24;9.10;99.90
17639;DHT22;8938;53.546;9.954;2023-02-15T18:26:52;9.20;99.90
17639;DHT22;8938;53.546;9.954;2023-02-15T18:29:18;9.20;99.90
17639;DHT22;8938;53.546;9.954;2023-02-15T18:31:45;9.20;99.90
17639;DHT22;8938;53.546;9.954;2023-02-15T18:34:28;9.10;99.90
17639;DHT22;8938;53.546;9.954;2023-02-15T18:36:55;8.90;99.90
17639;DHT22;8938;53.546;9.954;2023-02-15T18:39:41;8.90;99.90
17639;DHT22;8938;53.546;9.954;2023-02-15T18:42:24;8.80;99.90
17639;DHT22;8938;53.546;9.954;2023-02-15T18:44:56;8.80;99.90
17639;DHT22;8938;53.546;9.954;2023-02-15T18:47:22;8.70;99.90
17639;DHT22;8938;53.546;9.954;2023-02-15T18:49:48;8.70;99.90
17639;DHT22;8938;53.546;9.954;2023-02-15T18:52:21;8.70;99.90
17639;DHT22;8938;53.546;9.954;2023-02-15T18:54:50;8.70;99.90
17639;DHT22;8938;53.546;9.954;2023-02-15T18:57:16;8.70;99.90
17639;DHT22;8938;53.546;9.954;2023-02-15T18:59:42;8.70;99.90
17639;DHT22;8938;53.546;9.954;2023-02-15T19:02:12;8.80;99.90
17639;DHT22;8938;53.546;9.954;2023-02-15T19:04:38;8.80;99.90
17639;DHT22;8938;53.546;9.954;2023-02-15T19:07:03;8.90;99.90
17639;DHT22;8938;53.546;9.954;2023-02-15T19:09:29;9.00;99.90
17639;DHT22;8938;53.546;9.954;2023-02-15T19:11:55;9.10;99.90
17639;DHT22;8938;53.546;9.954;2023-02-15T19:14:28;9.20;99.90
17639;DHT22;8938;53.546;9.954;2023-02-15T19:16:55;9.20;99.90
17639;DHT22;8938;53.546;9.954;2023-02-15T19:19:22;9.30;99.90